createdAt,value
2022-08-10T00:04:55.349Z,26.05
2022-08-10T00:09:58.048Z,26.04
2022-08-10T00:15:01.322Z,26.02
2022-08-10T00:20:08.475Z,26.02
2022-08-10T00:25:11.724Z,25.98
2022-08-10T00:30:14.788Z,25.96
2022-08-10T00:35:18.844Z,25.99
2022-08-10T00:40:36.911Z,25.96
2022-08-10T00:45:40.879Z,25.95
2022-08-10T00:50:44.991Z,25.94
2022-08-10T00:57:12.182Z,25.92
2022-08-10T01:01:23.520Z,25.94
2022-08-10T01:06:38.368Z,25.91
2022-08-10T01:12:37.921Z,25.89
2022-08-10T01:17:09.754Z,25.84
2022-08-10T01:22:29.021Z,25.83
2022-08-10T01:27:35.466Z,25.82
2022-08-10T01:32:50.162Z,25.76
2022-08-10T01:37:57.845Z,25.72
2022-08-10T01:43:08.009Z,25.65
2022-08-10T01:48:32.037Z,25.71
2022-08-10T01:53:41.022Z,25.76
2022-08-10T01:58:44.807Z,25.75
2022-08-10T02:04:04.314Z,25.70
2022-08-10T02:09:08.946Z,25.67
2022-08-10T02:14:12.074Z,25.62
2022-08-10T02:19:18.705Z,25.60
2022-08-10T02:24:21.462Z,25.55
2022-08-10T02:29:24.207Z,25.48
2022-08-10T02:34:28.376Z,25.50
2022-08-10T02:39:33.007Z,25.46
2022-08-10T02:45:17.814Z,25.43
2022-08-10T02:50:09.152Z,25.45
2022-08-10T02:55:17.937Z,25.37
2022-08-10T03:00:21.387Z,25.31
2022-08-10T03:05:25.665Z,25.31
2022-08-10T03:10:33.332Z,25.28
2022-08-10T03:15:37.185Z,25.24
2022-08-10T03:20:42.691Z,25.23
2022-08-10T03:25:53.139Z,25.16
2022-08-10T03:30:57.619Z,25.10
2022-08-10T03:36:42.579Z,25.14
2022-08-10T03:41:26.381Z,25.07
2022-08-10T03:46:32.994Z,24.25
2022-08-10T03:51:37.368Z,22.87
2022-08-10T03:56:40.864Z,22.20
2022-08-10T04:02:52.198Z,21.86
2022-08-10T04:07:07.845Z,21.58
2022-08-10T04:12:11.048Z,21.43
2022-08-10T04:17:14.297Z,21.18
2022-08-10T04:22:19.916Z,21.20
2022-08-10T04:27:22.935Z,21.02
2022-08-10T04:32:25.798Z,20.87
2022-08-10T04:37:29.891Z,20.93
2022-08-10T04:42:32.668Z,20.72
2022-08-10T04:47:57.267Z,20.81
2022-08-10T04:52:59.510Z,20.80
2022-08-10T04:58:02.331Z,20.95
2022-08-10T05:03:05.103Z,21.14
2022-08-10T05:08:09.248Z,20.95
2022-08-10T05:13:12.019Z,20.99
2022-08-10T05:18:15.004Z,21.04
2022-08-10T05:23:19.194Z,21.23
2022-08-10T05:28:21.939Z,21.34
2022-08-10T05:33:30.714Z,21.41
2022-08-10T05:38:34.844Z,21.45
2022-08-10T05:43:37.668Z,21.50
2022-08-10T05:48:58.923Z,21.56
2022-08-10T05:54:09.067Z,21.65
2022-08-10T05:59:12.148Z,21.72
2022-08-10T06:04:19.371Z,21.83
2022-08-10T06:09:23.596Z,21.82
2022-08-10T06:14:43.769Z,21.90
2022-08-10T06:19:56.483Z,22.02
2022-08-10T06:25:27.330Z,22.18
2022-08-10T06:30:23.851Z,22.08
2022-08-10T06:35:28.431Z,21.95
2022-08-10T06:40:34.904Z,22.15
2022-08-10T06:45:40.094Z,22.32
2022-08-10T06:50:58.792Z,22.43
2022-08-10T06:56:06.207Z,22.53
2022-08-10T07:01:10.247Z,22.83
2022-08-10T07:06:13.364Z,22.96
2022-08-10T07:11:18.563Z,23.07
2022-08-10T07:16:21.384Z,23.17
2022-08-10T07:21:24.366Z,23.24
2022-08-10T07:26:28.872Z,23.32
2022-08-10T07:31:54.702Z,23.40
2022-08-10T07:36:54.696Z,23.44
2022-08-10T07:41:59.140Z,23.51
2022-08-10T07:47:04.056Z,23.57
2022-08-10T07:52:07.605Z,23.61
2022-08-10T07:57:24.946Z,23.64
2022-08-10T08:02:37.547Z,23.70
2022-08-10T08:07:40.677Z,23.76
2022-08-10T08:12:44.805Z,23.79
2022-08-10T08:17:48.154Z,23.83
2022-08-10T08:24:14.785Z,23.89
2022-08-10T08:28:27.649Z,23.92
2022-08-10T08:33:41.818Z,23.98
2022-08-10T08:38:45.467Z,23.99
2022-08-10T08:43:55.105Z,24.03
2022-08-10T08:50:08.524Z,24.04
2022-08-10T08:54:58.065Z,23.91
2022-08-10T09:00:06.270Z,23.96
2022-08-10T09:05:17.436Z,23.97
2022-08-10T09:10:22.408Z,24.03
2022-08-10T09:15:39.553Z,24.08
2022-08-10T09:20:47.934Z,24.09
2022-08-10T09:25:53.978Z,24.26
2022-08-10T09:31:21.381Z,24.45
2022-08-10T09:36:33.767Z,24.47
2022-08-10T09:41:40.911Z,24.52
2022-08-10T09:47:06.384Z,24.57
2022-08-10T09:52:14.047Z,24.58
2022-08-10T09:57:44.379Z,24.63
2022-08-10T10:02:52.553Z,24.63
2022-08-10T10:07:58.766Z,24.68
2022-08-10T10:13:05.492Z,24.70
2022-08-10T10:18:18.298Z,24.72
2022-08-10T10:23:27.297Z,24.74
2022-08-10T10:29:11.293Z,24.79
2022-08-10T10:34:07.987Z,24.83
2022-08-10T10:39:10.857Z,24.87
2022-08-10T10:44:24.410Z,24.82
2022-08-10T10:49:37.359Z,24.92
2022-08-10T10:54:43.045Z,24.98
2022-08-10T10:59:55.364Z,25.00
2022-08-10T11:05:06.156Z,25.00
2022-08-10T11:10:32.958Z,25.03
2022-08-10T11:15:47.307Z,25.06
2022-08-10T11:21:01.905Z,25.03
2022-08-10T11:26:12.807Z,25.09
2022-08-10T11:31:20.908Z,25.10
2022-08-10T11:36:28.652Z,25.13
2022-08-10T11:42:07.779Z,25.17
2022-08-10T11:47:06.654Z,25.17
2022-08-10T11:52:13.790Z,25.20
2022-08-10T11:57:16.789Z,25.21
2022-08-10T12:02:21.361Z,25.33
2022-08-10T12:10:06.566Z,25.39
2022-08-10T12:12:51.931Z,25.29
2022-08-10T12:17:55.825Z,25.32
2022-08-10T12:23:03.050Z,25.35
2022-08-10T12:28:10.691Z,25.39
2022-08-10T12:33:19.551Z,25.35
2022-08-10T12:38:25.118Z,25.35
2022-08-10T12:44:07.257Z,25.30
2022-08-10T12:48:57.198Z,25.24
2022-08-10T12:54:04.291Z,25.22
2022-08-10T12:59:07.319Z,25.19
2022-08-10T13:04:21.734Z,25.31
2022-08-10T13:09:28.752Z,25.45
2022-08-10T13:14:33.465Z,25.50
2022-08-10T13:19:55.191Z,25.49
2022-08-10T13:25:02.460Z,25.53
2022-08-10T13:30:06.875Z,25.54
2022-08-10T13:35:13.727Z,25.55
2022-08-10T13:40:20.691Z,25.58
2022-08-10T13:45:24.878Z,25.61
2022-08-10T13:50:33.298Z,25.64
2022-08-10T13:55:53.406Z,25.60
2022-08-10T14:00:57.825Z,25.61
2022-08-10T14:06:00.662Z,25.61
2022-08-10T14:11:11.567Z,25.59
2022-08-10T14:16:14.970Z,25.57
2022-08-10T14:21:17.764Z,25.58
2022-08-10T14:26:23.118Z,25.62
2022-08-10T14:31:35.672Z,25.58
2022-08-10T14:36:42.256Z,25.68
2022-08-10T14:42:04.604Z,25.71
2022-08-10T14:47:54.097Z,25.82
2022-08-10T14:52:33.495Z,25.97
2022-08-10T14:58:11.358Z,25.88
2022-08-10T15:03:03.665Z,25.87
2022-08-10T15:08:26.883Z,25.88
2022-08-10T15:13:33.611Z,25.86
2022-08-10T15:18:39.908Z,25.85
2022-08-10T15:24:05.165Z,25.85
2022-08-10T15:29:22.835Z,25.85
2022-08-10T15:34:45.479Z,25.83
2022-08-10T15:40:21.809Z,25.84
2022-08-10T15:45:22.514Z,25.94
2022-08-10T15:50:27.672Z,26.31
2022-08-10T15:55:44.108Z,27.29
2022-08-10T16:00:51.415Z,27.56
2022-08-10T16:06:02.509Z,28.02
2022-08-10T16:11:06.927Z,28.65
2022-08-10T16:16:13.265Z,27.42
2022-08-10T16:21:17.889Z,27.27
2022-08-10T16:26:25.742Z,27.21
2022-08-10T16:31:33.258Z,27.12
2022-08-10T16:36:39.777Z,27.01
2022-08-10T16:42:03.941Z,26.91
2022-08-10T16:47:07.298Z,26.90
2022-08-10T16:52:10.242Z,26.86
2022-08-10T16:57:12.982Z,26.81
2022-08-10T17:02:18.446Z,26.83
2022-08-10T17:07:26.076Z,26.82
2022-08-10T17:12:33.659Z,26.76
2022-08-10T17:17:40.373Z,26.79
2022-08-10T17:22:43.097Z,26.81
2022-08-10T17:28:32.857Z,26.83
2022-08-10T17:33:12.212Z,26.82
2022-08-10T17:38:20.303Z,26.81
2022-08-10T17:44:01.076Z,26.94
2022-08-10T17:48:47.913Z,26.91
2022-08-10T17:53:51.495Z,26.92
2022-08-10T17:58:57.080Z,26.91
2022-08-10T18:04:02.735Z,26.89
2022-08-10T18:09:18.625Z,26.93
2022-08-10T18:14:21.374Z,26.91
2022-08-10T18:19:25.554Z,26.86
2022-08-10T18:24:28.434Z,26.89
2022-08-10T18:29:32.212Z,26.89
2022-08-10T18:34:36.501Z,26.88
2022-08-10T18:39:40.480Z,26.87
2022-08-10T18:44:45.121Z,26.83
2022-08-10T18:50:05.409Z,26.84
2022-08-10T18:55:14.486Z,26.86
2022-08-10T19:00:26.701Z,26.84
2022-08-10T19:05:37.894Z,26.88
2022-08-10T19:10:43.500Z,26.88
2022-08-10T19:15:52.586Z,26.88
2022-08-10T19:20:58.573Z,26.89
2022-08-10T19:26:42.549Z,26.90
2022-08-10T19:31:41.847Z,26.88
2022-08-10T19:36:53.230Z,26.89
2022-08-10T19:41:58.996Z,26.85
2022-08-10T19:47:17.421Z,26.87
2022-08-10T19:52:26.057Z,26.86
2022-08-10T19:57:35.920Z,26.85
2022-08-10T20:02:48.043Z,26.83
2022-08-10T20:07:56.927Z,26.68
2022-08-10T20:13:09.985Z,26.76
2022-08-10T20:18:17.123Z,26.64
2022-08-10T20:23:22.742Z,26.70
2022-08-10T20:28:32.253Z,26.68
2022-08-10T20:33:39.105Z,26.66
2022-08-10T20:38:47.044Z,26.66
2022-08-10T20:43:57.500Z,26.69
2022-08-10T20:49:02.537Z,26.64
2022-08-10T20:54:08.000Z,26.42
2022-08-10T20:59:21.501Z,26.38
2022-08-10T21:04:44.001Z,26.25
2022-08-10T21:09:56.378Z,26.25
2022-08-10T21:15:05.175Z,26.25
2022-08-10T21:20:34.513Z,26.19
2022-08-10T21:25:44.974Z,26.16
2022-08-10T21:30:59.574Z,26.12
2022-08-10T21:36:08.732Z,26.08
2022-08-10T21:41:57.746Z,26.10
2022-08-10T21:47:40.022Z,25.99
2022-08-10T21:53:05.086Z,25.95
2022-08-10T21:58:30.346Z,25.92
2022-08-10T22:03:50.822Z,25.95
2022-08-10T22:09:17.387Z,25.95
2022-08-10T22:14:44.030Z,25.90
2022-08-10T22:20:15.792Z,25.90
2022-08-10T22:25:45.658Z,25.84
2022-08-10T22:37:10.840Z,25.85
2022-08-10T22:42:58.937Z,25.82
2022-08-10T22:48:18.286Z,25.82
2022-08-10T22:53:24.874Z,25.69
2022-08-10T22:58:39.855Z,25.58
2022-08-10T23:03:49.692Z,25.54
2022-08-10T23:08:58.032Z,25.51
2022-08-10T23:14:02.255Z,25.53
2022-08-10T23:19:10.082Z,25.46
2022-08-10T23:24:12.880Z,25.45
2022-08-10T23:29:15.616Z,25.40
2022-08-10T23:34:23.212Z,25.33
2022-08-10T23:39:32.775Z,25.31
2022-08-10T23:44:41.744Z,24.95
2022-08-10T23:49:46.120Z,25.13
2022-08-10T23:54:51.078Z,25.06
2022-08-10T23:59:55.723Z,24.89
